createdAt,value
2022-08-10T00:00:57.063Z,19.82
2022-08-10T00:01:57.163Z,19.71
2022-08-10T00:02:57.122Z,19.64
2022-08-10T00:03:57.150Z,19.72
2022-08-10T00:04:57.180Z,19.60
2022-08-10T00:05:57.210Z,19.71
2022-08-10T00:06:57.242Z,19.61
2022-08-10T00:07:57.270Z,19.61
2022-08-10T00:08:57.311Z,19.60
2022-08-10T00:09:57.343Z,19.50
2022-08-10T00:10:57.363Z,19.47
2022-08-10T00:11:57.400Z,19.47
2022-08-10T00:12:57.583Z,19.49
2022-08-10T00:13:57.446Z,19.38
2022-08-10T00:14:57.479Z,19.34
2022-08-10T00:15:57.507Z,19.45
2022-08-10T00:16:57.538Z,19.43
2022-08-10T00:17:57.769Z,19.37
2022-08-10T00:18:57.597Z,19.34
2022-08-10T00:20:04.053Z,19.24
2022-08-10T00:20:57.658Z,19.32
2022-08-10T00:21:57.695Z,19.34
2022-08-10T00:22:58.202Z,19.31
2022-08-10T00:23:57.754Z,19.30
2022-08-10T00:24:57.791Z,19.25
2022-08-10T00:25:57.821Z,19.17
2022-08-10T00:27:52.855Z,19.16
2022-08-10T00:28:03.689Z,19.15
2022-08-10T00:28:58.109Z,19.12
2022-08-10T00:29:58.138Z,19.13
2022-08-10T00:31:59.492Z,19.05
2022-08-10T00:34:58.795Z,18.87
2022-08-10T00:35:58.317Z,18.90
2022-08-10T00:37:58.575Z,18.90
2022-08-10T00:39:59.792Z,18.86
2022-08-10T00:42:58.727Z,18.84
2022-08-10T00:43:58.347Z,18.84
2022-08-10T00:44:58.890Z,18.81
2022-08-10T00:46:00.285Z,18.78
2022-08-10T00:57:17.868Z,18.74
2022-08-10T01:08:59.071Z,18.39
2022-08-10T01:09:59.102Z,18.23
2022-08-10T01:10:59.146Z,18.38
2022-08-10T01:12:40.856Z,18.31
2022-08-10T01:12:59.202Z,18.36
2022-08-10T01:14:00.037Z,18.36
2022-08-10T01:14:59.248Z,18.34
2022-08-10T01:15:59.294Z,18.35
2022-08-10T01:16:59.321Z,18.36
2022-08-10T01:18:00.060Z,18.31
2022-08-10T01:18:59.579Z,18.31
2022-08-10T01:20:00.012Z,18.26
2022-08-10T01:21:00.149Z,18.26
2022-08-10T01:21:59.872Z,18.23
2022-08-10T01:58:03.932Z,17.79
2022-08-10T01:59:00.543Z,17.71
2022-08-10T02:00:02.710Z,17.81
2022-08-10T02:02:00.615Z,17.80
2022-08-10T02:03:00.648Z,17.62
2022-08-10T02:04:03.937Z,17.68
2022-08-10T02:05:00.700Z,17.68
2022-08-10T02:06:00.742Z,17.60
2022-08-10T02:07:00.960Z,17.63
2022-08-10T02:08:01.012Z,17.62
2022-08-10T02:09:06.039Z,17.62
2022-08-10T02:10:00.863Z,17.65
2022-08-10T02:11:00.888Z,17.55
2022-08-10T02:12:07.397Z,17.55
2022-08-10T02:16:02.674Z,17.46
2022-08-10T02:17:01.062Z,17.45
2022-08-10T02:18:02.040Z,17.40
2022-08-10T02:19:01.727Z,17.43
2022-08-10T02:20:01.145Z,17.49
2022-08-10T02:21:01.162Z,17.46
2022-08-10T02:23:01.231Z,17.31
2022-08-10T02:24:01.247Z,17.31
2022-08-10T02:25:02.500Z,17.35
2022-08-10T02:26:01.297Z,17.32
2022-08-10T02:27:01.328Z,17.31
2022-08-10T02:28:01.357Z,17.31
2022-08-10T02:29:01.384Z,17.28
2022-08-10T02:30:01.415Z,17.28
2022-08-10T02:31:01.445Z,17.21
2022-08-10T02:32:01.473Z,17.21
2022-08-10T02:33:01.501Z,17.25
2022-08-10T02:34:01.530Z,17.10
2022-08-10T02:35:01.561Z,17.06
2022-08-10T02:36:01.587Z,17.21
2022-08-10T02:37:01.614Z,17.31
2022-08-10T02:38:01.644Z,17.32
2022-08-10T02:39:01.675Z,17.24
2022-08-10T02:40:01.701Z,17.22
2022-08-10T02:45:02.153Z,17.20
2022-08-10T02:45:12.219Z,17.21
2022-08-10T02:45:22.576Z,17.13
2022-08-10T02:45:22.800Z,17.18
2022-08-10T02:45:27.037Z,17.15
2022-08-10T02:46:01.875Z,17.15
2022-08-10T02:47:01.904Z,17.07
2022-08-10T02:48:01.933Z,17.09
2022-08-10T02:49:01.961Z,17.05
2022-08-10T02:50:01.992Z,17.10
2022-08-10T02:51:02.016Z,17.03
2022-08-10T02:52:06.355Z,17.24
2022-08-10T02:53:02.075Z,17.05
2022-08-10T02:54:02.106Z,17.09
2022-08-10T02:55:06.193Z,17.18
2022-08-10T02:56:02.163Z,17.25
2022-08-10T02:57:02.191Z,17.13
2022-08-10T02:58:15.344Z,17.12
2022-08-10T02:59:02.252Z,17.10
2022-08-10T03:00:02.278Z,17.18
2022-08-10T03:01:02.330Z,17.12
2022-08-10T03:02:02.349Z,17.15
2022-08-10T03:03:02.365Z,17.18
2022-08-10T03:04:02.394Z,17.00
2022-08-10T03:05:02.422Z,17.07
2022-08-10T03:06:02.454Z,17.02
2022-08-10T03:07:02.481Z,17.12
2022-08-10T03:08:02.515Z,17.12
2022-08-10T03:09:02.538Z,17.10
2022-08-10T03:10:02.570Z,17.02
2022-08-10T03:11:02.598Z,16.99
2022-08-10T03:12:35.261Z,17.06
2022-08-10T03:13:02.656Z,16.97
2022-08-10T03:14:02.683Z,17.05
2022-08-10T03:15:02.716Z,16.99
2022-08-10T03:16:02.741Z,17.03
2022-08-10T03:17:02.769Z,17.03
2022-08-10T03:18:02.800Z,16.99
2022-08-10T03:19:02.829Z,16.97
2022-08-10T03:21:45.435Z,16.91
2022-08-10T03:22:45.464Z,16.88
2022-08-10T03:23:45.493Z,16.80
2022-08-10T03:24:45.521Z,16.88
2022-08-10T03:25:54.322Z,16.80
2022-08-10T03:26:45.579Z,16.87
2022-08-10T03:27:45.608Z,16.72
2022-08-10T03:28:45.635Z,16.76
2022-08-10T03:30:28.133Z,16.80
2022-08-10T03:31:45.730Z,16.80
2022-08-10T03:33:45.774Z,16.69
2022-08-10T03:34:48.419Z,16.66
2022-08-10T03:36:40.660Z,16.66
2022-08-10T03:40:22.549Z,16.52
2022-08-10T04:33:24.854Z,16.40
2022-08-10T05:08:39.921Z,17.06
2022-08-10T05:10:02.996Z,17.03
2022-08-10T05:10:39.979Z,17.10
2022-08-10T05:11:40.009Z,17.07
2022-08-10T05:12:40.505Z,17.12
2022-08-10T05:13:40.066Z,17.13
2022-08-10T05:14:40.095Z,17.12
2022-08-10T05:15:40.124Z,17.22
2022-08-10T05:16:40.151Z,17.21
2022-08-10T05:18:40.207Z,17.31
2022-08-10T05:20:01.836Z,17.36
2022-08-10T05:20:40.266Z,17.35
2022-08-10T05:21:52.047Z,17.40
2022-08-10T05:22:40.844Z,17.42
2022-08-10T05:23:40.552Z,17.38
2022-08-10T05:24:40.384Z,17.39
2022-08-10T05:25:40.410Z,17.43
2022-08-10T05:27:00.466Z,17.47
2022-08-10T05:27:40.466Z,17.54
2022-08-10T05:28:40.498Z,17.62
2022-08-10T05:29:40.526Z,17.66
2022-08-10T05:30:40.557Z,17.80
2022-08-10T05:31:40.583Z,17.81
2022-08-10T05:32:56.037Z,17.87
2022-08-10T05:33:40.645Z,17.96
2022-08-10T05:34:40.674Z,17.99
2022-08-10T05:35:56.823Z,17.92
2022-08-10T05:36:40.730Z,18.03
2022-08-10T05:38:11.880Z,18.13
2022-08-10T05:38:40.790Z,18.11
2022-08-10T05:39:40.852Z,18.26
2022-08-10T05:40:40.850Z,18.35
2022-08-10T05:41:45.354Z,18.38
2022-08-10T05:42:40.906Z,18.45
2022-08-10T05:43:40.934Z,18.44
2022-08-10T05:44:40.965Z,18.51
2022-08-10T05:46:16.811Z,18.61
2022-08-10T05:46:41.029Z,18.56
2022-08-10T05:48:56.085Z,18.65
2022-08-10T05:48:59.513Z,18.79
2022-08-10T05:49:41.112Z,18.84
2022-08-10T05:50:41.144Z,18.96
2022-08-10T05:51:41.171Z,19.00
2022-08-10T05:52:41.202Z,19.07
2022-08-10T05:54:01.700Z,19.19
2022-08-10T05:54:41.262Z,19.31
2022-08-10T05:55:41.289Z,19.42
2022-08-10T05:56:54.259Z,19.49
2022-08-10T06:00:33.349Z,19.82
2022-08-10T06:00:49.947Z,20.00
2022-08-10T06:02:33.866Z,20.29
2022-08-10T06:03:29.111Z,20.56
2022-08-10T06:04:29.088Z,20.71
2022-08-10T06:05:29.126Z,20.96
2022-08-10T06:06:29.148Z,21.28
2022-08-10T06:07:29.239Z,21.86
2022-08-10T06:08:29.208Z,22.59
2022-08-10T06:09:29.241Z,22.88
2022-08-10T06:10:32.253Z,23.19
2022-08-10T06:12:27.764Z,23.32
2022-08-10T06:12:37.584Z,23.62
2022-08-10T06:13:34.487Z,24.07
2022-08-10T06:14:29.395Z,24.61
2022-08-10T06:15:52.136Z,25.11
2022-08-10T06:16:29.460Z,25.57
2022-08-10T06:17:29.491Z,26.19
2022-08-10T06:19:12.077Z,26.94
2022-08-10T06:20:12.109Z,27.23
2022-08-10T06:21:12.541Z,27.18
2022-08-10T06:23:23.016Z,27.83
2022-08-10T06:24:19.817Z,27.49
2022-08-10T06:26:08.233Z,27.51
2022-08-10T06:27:02.436Z,27.98
2022-08-10T06:28:02.471Z,28.16
2022-08-10T06:30:52.679Z,28.48
2022-08-10T06:34:19.237Z,28.63
2022-08-10T06:35:13.009Z,28.75
2022-08-10T06:36:13.040Z,28.58
2022-08-10T06:37:13.471Z,28.78
2022-08-10T06:38:14.517Z,28.91
2022-08-10T06:39:32.466Z,28.88
2022-08-10T06:40:55.731Z,29.15
2022-08-10T06:41:57.675Z,29.18
2022-08-10T06:42:55.812Z,29.38
2022-08-10T06:43:55.842Z,29.61
2022-08-10T06:44:55.879Z,29.75
2022-08-10T06:46:07.233Z,29.97
2022-08-10T06:46:58.641Z,30.07
2022-08-10T06:47:55.990Z,29.82
2022-08-10T06:48:56.030Z,30.10
2022-08-10T06:53:56.224Z,31.18
2022-08-10T06:54:56.261Z,31.45
2022-08-10T06:55:57.146Z,31.22
2022-08-10T06:57:17.217Z,31.16
2022-08-10T06:57:59.602Z,31.40
2022-08-10T06:58:56.420Z,31.82
2022-08-10T06:59:56.460Z,31.90
2022-08-10T07:00:56.667Z,32.10
2022-08-10T07:01:56.541Z,32.19
2022-08-10T07:02:56.588Z,32.12
2022-08-10T07:03:56.634Z,32.19
2022-08-10T07:04:56.659Z,32.23
2022-08-10T07:05:57.304Z,32.10
2022-08-10T07:06:56.750Z,32.12
2022-08-10T07:07:57.384Z,31.90
2022-08-10T07:08:56.830Z,31.91
2022-08-10T07:09:56.859Z,31.88
2022-08-10T07:10:56.900Z,31.95
2022-08-10T07:11:56.939Z,32.15
2022-08-10T07:12:56.994Z,32.28
2022-08-10T07:14:14.218Z,32.46
2022-08-10T07:14:57.061Z,32.35
2022-08-10T07:15:59.946Z,32.38
2022-08-10T07:16:57.143Z,32.64
2022-08-10T07:17:57.187Z,32.65
2022-08-10T07:18:57.227Z,32.35
2022-08-10T07:19:57.268Z,32.20
2022-08-10T07:20:57.306Z,32.37
2022-08-10T07:21:58.091Z,32.57
2022-08-10T07:23:04.841Z,32.49
2022-08-10T07:24:00.513Z,32.57
2022-08-10T07:24:57.473Z,32.54
2022-08-10T07:25:57.530Z,32.79
2022-08-10T07:26:57.767Z,32.61
2022-08-10T07:28:00.108Z,32.91
2022-08-10T07:29:01.066Z,32.93
2022-08-10T07:29:57.698Z,32.34
2022-08-10T07:30:57.718Z,32.05
2022-08-10T07:31:58.015Z,32.31
2022-08-10T07:32:57.799Z,32.50
2022-08-10T07:33:57.841Z,32.72
2022-08-10T07:34:57.881Z,32.30
2022-08-10T07:35:57.926Z,32.24
2022-08-10T07:36:57.965Z,32.43
2022-08-10T07:37:58.007Z,32.50
2022-08-10T07:38:58.247Z,32.23
2022-08-10T07:40:03.735Z,32.37
2022-08-10T07:40:58.129Z,32.79
2022-08-10T07:41:58.173Z,33.03
2022-08-10T07:42:58.223Z,32.89
2022-08-10T07:45:58.351Z,33.36
2022-08-10T07:46:58.378Z,33.36
2022-08-10T07:48:00.603Z,33.55
2022-08-10T07:48:58.460Z,33.46
2022-08-10T07:49:58.506Z,33.63
2022-08-10T07:50:58.545Z,34.00
2022-08-10T07:51:58.803Z,34.40
2022-08-10T07:52:58.640Z,34.00
2022-08-10T07:53:58.689Z,33.68
2022-08-10T07:54:58.926Z,33.68
2022-08-10T07:56:04.107Z,33.71
2022-08-10T07:56:58.811Z,33.59
2022-08-10T08:00:24.273Z,33.83
2022-08-10T08:01:24.280Z,34.00
2022-08-10T08:02:24.356Z,33.99
2022-08-10T08:05:57.219Z,34.58
2022-08-10T08:07:24.368Z,34.87
2022-08-10T08:08:24.407Z,34.96
2022-08-10T08:09:24.451Z,34.90
2022-08-10T08:10:24.493Z,34.94
2022-08-10T08:11:26.377Z,35.09
2022-08-10T08:12:25.395Z,35.30
2022-08-10T08:16:17.836Z,34.75
2022-08-10T08:17:25.003Z,34.93
2022-08-10T08:24:30.565Z,35.26
2022-08-10T08:24:31.356Z,35.46
2022-08-10T08:26:25.389Z,35.60
2022-08-10T09:31:22.397Z,36.08
2022-08-10T09:36:13.859Z,36.37
2022-08-10T09:36:19.624Z,36.55
2022-08-10T09:41:13.776Z,36.44
2022-08-10T09:54:13.588Z,36.15
2022-08-10T09:56:18.079Z,36.44
2022-08-10T09:57:44.856Z,36.43
2022-08-10T10:02:02.611Z,36.89
2022-08-10T10:02:50.775Z,36.88
2022-08-10T10:04:47.547Z,36.88
2022-08-10T10:10:57.614Z,35.53
2022-08-10T10:11:24.453Z,35.86
2022-08-10T10:12:24.697Z,36.14
2022-08-10T10:15:10.362Z,36.52
2022-08-10T10:15:37.187Z,36.62
2022-08-10T10:16:37.229Z,36.89
2022-08-10T10:17:37.447Z,37.07
2022-08-10T10:18:37.309Z,36.52
2022-08-10T10:19:40.727Z,36.89
2022-08-10T10:20:37.393Z,36.62
2022-08-10T10:22:37.465Z,36.26
2022-08-10T10:23:37.495Z,36.14
2022-08-10T10:26:48.439Z,36.09
2022-08-10T10:27:16.367Z,36.17
2022-08-10T10:28:15.304Z,35.47
2022-08-10T10:29:55.536Z,35.21
2022-08-10T10:30:15.384Z,35.16
2022-08-10T10:31:16.739Z,34.90
2022-08-10T10:32:15.459Z,34.87
2022-08-10T10:33:15.500Z,34.86
2022-08-10T10:34:15.536Z,34.90
2022-08-10T10:35:15.577Z,34.91
2022-08-10T10:37:15.652Z,35.30
2022-08-10T10:38:15.687Z,35.38
2022-08-10T10:39:17.607Z,35.47
2022-08-10T10:40:15.766Z,35.76
2022-08-10T10:41:15.804Z,35.80
2022-08-10T10:42:34.974Z,36.02
2022-08-10T10:43:19.311Z,35.83
2022-08-10T10:44:18.745Z,36.19
2022-08-10T10:45:50.496Z,36.09
2022-08-10T10:46:15.992Z,36.05
2022-08-10T10:47:16.033Z,35.62
2022-08-10T10:48:23.917Z,35.61
2022-08-10T10:49:16.102Z,35.90
2022-08-10T10:50:16.142Z,35.94
2022-08-10T10:51:16.179Z,36.15
2022-08-10T10:52:16.220Z,36.12
2022-08-10T10:53:16.270Z,36.15
2022-08-10T10:54:16.303Z,35.98
2022-08-10T10:55:16.340Z,35.64
2022-08-10T10:56:16.568Z,35.20
2022-08-10T10:57:16.408Z,35.26
2022-08-10T10:58:20.329Z,35.28
2022-08-10T10:59:56.264Z,35.46
2022-08-10T11:00:16.528Z,35.74
2022-08-10T11:01:16.647Z,35.65
2022-08-10T11:02:16.598Z,35.52
2022-08-10T11:03:16.635Z,35.76
2022-08-10T11:04:16.681Z,35.42
2022-08-10T11:05:16.723Z,35.09
2022-08-10T11:06:16.752Z,35.20
2022-08-10T11:07:17.004Z,35.39
2022-08-10T11:08:16.829Z,35.21
2022-08-10T11:10:06.068Z,35.11
2022-08-10T11:10:32.958Z,35.02
2022-08-10T11:11:27.038Z,34.69
2022-08-10T11:12:16.976Z,34.93
2022-08-10T11:14:26.143Z,34.99
2022-08-10T11:14:26.844Z,35.12
2022-08-10T11:15:17.133Z,35.16
2022-08-10T11:21:18.131Z,34.91
2022-08-10T11:24:44.465Z,33.90
2022-08-10T11:25:17.457Z,33.75
2022-08-10T11:26:17.490Z,33.53
2022-08-10T11:27:22.287Z,33.40
2022-08-10T11:28:17.566Z,33.16
2022-08-10T11:29:17.605Z,33.01
2022-08-10T11:30:17.637Z,32.91
2022-08-10T11:32:35.317Z,32.89
2022-08-10T11:34:47.829Z,32.91
2022-08-10T11:35:37.998Z,32.72
2022-08-10T11:36:38.035Z,32.65
2022-08-10T11:38:37.029Z,32.34
2022-08-10T11:38:52.234Z,32.20
2022-08-10T11:39:38.234Z,32.12
2022-08-10T11:42:28.727Z,32.15
2022-08-10T11:43:15.903Z,32.13
2022-08-10T11:44:15.936Z,32.32
2022-08-10T11:45:15.974Z,32.45
2022-08-10T11:46:27.613Z,32.34
2022-08-10T11:47:16.049Z,32.42
2022-08-10T11:48:54.259Z,32.50
2022-08-10T11:49:16.114Z,32.39
2022-08-10T11:50:16.149Z,32.52
2022-08-10T11:51:16.198Z,32.46
2022-08-10T11:54:16.289Z,32.59
2022-08-10T11:55:16.324Z,32.54
2022-08-10T11:56:16.359Z,32.47
2022-08-10T11:57:16.884Z,32.42
2022-08-10T12:00:16.510Z,32.69
2022-08-10T12:05:54.542Z,32.05
2022-08-10T12:06:54.085Z,31.90
2022-08-10T12:10:02.677Z,31.97
2022-08-10T12:10:09.588Z,32.31
2022-08-10T12:10:10.716Z,32.09
2022-08-10T12:10:29.451Z,32.45
2022-08-10T12:11:32.101Z,32.62
2022-08-10T12:12:29.515Z,32.79
2022-08-10T12:13:29.866Z,32.87
2022-08-10T12:14:29.584Z,32.67
2022-08-10T12:15:29.631Z,32.59
2022-08-10T12:16:32.678Z,32.45
2022-08-10T12:17:29.689Z,32.20
2022-08-10T12:18:29.723Z,32.24
2022-08-10T12:19:29.767Z,32.27
2022-08-10T12:20:29.820Z,32.20
2022-08-10T12:21:29.839Z,32.43
2022-08-10T12:22:30.064Z,32.43
2022-08-10T12:23:29.895Z,32.37
2022-08-10T12:24:29.946Z,32.34
2022-08-10T12:26:47.607Z,32.08
2022-08-10T12:27:47.643Z,32.17
2022-08-10T12:28:50.402Z,32.20
2022-08-10T12:29:47.715Z,31.93
2022-08-10T12:30:47.753Z,32.06
2022-08-10T12:31:47.782Z,32.16
2022-08-10T12:32:47.832Z,32.24
2022-08-10T12:58:57.201Z,32.19
2022-08-10T12:59:43.311Z,32.32
2022-08-10T13:00:48.922Z,32.37
2022-08-10T13:02:10.683Z,32.35
2022-08-10T13:02:37.534Z,32.24
2022-08-10T13:04:23.518Z,32.32
2022-08-10T13:04:37.437Z,32.32
2022-08-10T13:06:00.355Z,32.30
2022-08-10T13:06:37.507Z,32.24
2022-08-10T13:08:04.102Z,32.19
2022-08-10T13:08:37.579Z,32.20
2022-08-10T13:09:56.459Z,32.27
2022-08-10T13:10:37.643Z,32.17
2022-08-10T13:12:36.796Z,32.15
2022-08-10T13:12:40.329Z,32.10
2022-08-10T13:13:37.746Z,32.16
2022-08-10T13:14:37.781Z,32.17
2022-08-10T13:15:49.538Z,32.35
2022-08-10T13:16:37.852Z,32.27
2022-08-10T13:17:39.513Z,32.06
2022-08-10T13:18:37.925Z,32.23
2022-08-10T13:19:38.725Z,32.12
2022-08-10T13:20:37.989Z,32.19
2022-08-10T13:21:38.025Z,32.16
2022-08-10T13:22:38.057Z,32.17
2022-08-10T13:23:38.091Z,32.16
2022-08-10T13:24:38.136Z,32.17
2022-08-10T13:25:38.162Z,32.19
2022-08-10T13:26:38.214Z,32.19
2022-08-10T13:27:59.768Z,32.34
2022-08-10T13:28:39.846Z,32.38
2022-08-10T13:29:38.324Z,32.39
2022-08-10T13:30:38.458Z,32.34
2022-08-10T13:32:03.642Z,32.39
2022-08-10T13:32:38.527Z,32.37
2022-08-10T13:34:40.733Z,32.37
2022-08-10T13:34:43.336Z,32.42
2022-08-10T13:35:38.511Z,32.45
2022-08-10T13:36:38.546Z,32.52
2022-08-10T13:37:38.577Z,32.57
2022-08-10T13:38:38.610Z,32.45
2022-08-10T13:39:57.846Z,32.37
2022-08-10T13:40:38.679Z,32.37
2022-08-10T13:41:38.715Z,32.31
2022-08-10T13:42:38.762Z,32.31
2022-08-10T13:43:38.783Z,32.31
2022-08-10T13:44:38.816Z,32.20
2022-08-10T13:45:38.854Z,32.23
2022-08-10T13:46:38.886Z,32.17
2022-08-10T13:47:48.733Z,32.24
2022-08-10T13:48:38.974Z,32.37
2022-08-10T13:49:38.991Z,32.32
2022-08-10T13:50:39.025Z,32.32
2022-08-10T13:51:57.649Z,32.32
2022-08-10T13:52:39.095Z,32.30
2022-08-10T13:53:39.139Z,32.38
2022-08-10T13:54:39.162Z,32.35
2022-08-10T13:55:54.589Z,32.19
2022-08-10T13:56:39.236Z,32.05
2022-08-10T13:57:47.427Z,32.05
2022-08-10T13:58:39.306Z,32.05
2022-08-10T14:00:35.153Z,32.06
2022-08-10T14:00:39.507Z,31.93
2022-08-10T14:01:39.485Z,31.91
2022-08-10T14:02:39.441Z,32.05
2022-08-10T14:03:39.480Z,32.16
2022-08-10T14:04:39.510Z,32.12
2022-08-10T14:05:39.544Z,32.06
2022-08-10T14:06:39.578Z,32.16
2022-08-10T14:07:39.613Z,32.20
2022-08-10T14:08:39.648Z,32.32
2022-08-10T14:09:39.698Z,32.39
2022-08-10T14:11:09.018Z,32.47
2022-08-10T14:13:40.751Z,32.57
2022-08-10T14:15:39.889Z,32.54
2022-08-10T14:16:39.921Z,32.43
2022-08-10T14:17:44.533Z,32.39
2022-08-10T14:18:39.991Z,32.38
2022-08-10T14:19:43.506Z,32.52
2022-08-10T14:20:40.063Z,32.56
2022-08-10T14:21:40.096Z,32.57
2022-08-10T14:22:40.129Z,32.65
2022-08-10T14:23:40.164Z,32.50
2022-08-10T14:24:40.198Z,32.50
2022-08-10T14:25:40.233Z,32.46
2022-08-10T14:26:40.266Z,32.34
2022-08-10T14:28:03.502Z,32.31
2022-08-10T14:28:40.331Z,32.38
2022-08-10T14:29:40.372Z,32.16
2022-08-10T14:30:40.401Z,32.20
2022-08-10T14:31:40.446Z,32.19
2022-08-10T14:32:40.470Z,32.09
2022-08-10T14:33:40.505Z,32.17
2022-08-10T14:36:16.914Z,32.15
2022-08-10T14:36:20.169Z,32.10
2022-08-10T14:36:40.608Z,32.17
2022-08-10T14:37:40.808Z,32.31
2022-08-10T14:38:40.677Z,32.38
2022-08-10T14:39:40.786Z,32.45
2022-08-10T14:40:40.750Z,32.53
2022-08-10T14:42:01.329Z,32.57
2022-08-10T14:42:40.816Z,32.59
2022-08-10T14:43:40.855Z,32.59
2022-08-10T14:44:40.884Z,32.64
2022-08-10T14:45:40.919Z,32.62
2022-08-10T14:46:40.957Z,32.62
2022-08-10T14:47:53.023Z,32.43
2022-08-10T14:48:41.024Z,32.45
2022-08-10T14:49:57.965Z,32.43
2022-08-10T14:50:55.312Z,32.49
2022-08-10T14:51:44.689Z,32.49
2022-08-10T14:52:44.297Z,32.52
2022-08-10T14:53:41.194Z,32.53
2022-08-10T14:54:41.228Z,32.54
2022-08-10T14:55:57.656Z,32.61
2022-08-10T14:56:41.296Z,32.57
2022-08-10T14:58:19.466Z,32.28
2022-08-10T14:59:05.839Z,32.32
2022-08-10T15:00:25.133Z,32.30
2022-08-10T15:00:43.174Z,32.37
2022-08-10T15:02:37.687Z,32.24
2022-08-10T15:02:55.856Z,32.17
2022-08-10T15:04:00.837Z,32.23
2022-08-10T15:04:41.572Z,32.20
2022-08-10T15:05:41.795Z,32.23
2022-08-10T15:06:41.851Z,32.24
2022-08-10T15:07:41.680Z,32.37
2022-08-10T15:08:41.711Z,32.45
2022-08-10T15:10:01.017Z,32.57
2022-08-10T15:10:41.781Z,32.61
2022-08-10T15:12:13.696Z,32.54
2022-08-10T15:12:41.850Z,32.50
2022-08-10T15:13:41.883Z,32.50
2022-08-10T15:14:44.738Z,32.42
2022-08-10T15:16:11.005Z,32.43
2022-08-10T15:16:41.988Z,32.37
2022-08-10T15:17:42.345Z,32.34
2022-08-10T15:18:42.055Z,32.38
2022-08-10T15:20:04.747Z,32.39
2022-08-10T15:20:42.126Z,32.30
2022-08-10T15:21:42.774Z,32.23
2022-08-10T15:22:42.194Z,32.25
2022-08-10T15:24:04.706Z,32.34
2022-08-10T15:24:42.264Z,32.16
2022-08-10T15:25:42.296Z,32.12
2022-08-10T15:26:51.283Z,32.27
2022-08-10T15:27:53.548Z,32.15
2022-08-10T15:29:24.241Z,32.17
2022-08-10T15:29:57.851Z,32.19
2022-08-10T15:30:42.478Z,32.27
2022-08-10T15:31:45.638Z,32.37
2022-08-10T15:32:42.539Z,32.30
2022-08-10T15:34:01.908Z,32.31
2022-08-10T15:34:42.707Z,32.31
2022-08-10T15:35:42.645Z,32.37
2022-08-10T15:36:42.676Z,32.20
2022-08-10T15:37:42.712Z,32.23
2022-08-10T15:38:44.584Z,32.17
2022-08-10T15:40:22.368Z,32.17
2022-08-10T15:40:50.789Z,32.16
2022-08-10T15:41:57.567Z,32.23
2022-08-10T15:42:49.245Z,32.24
2022-08-10T15:43:44.711Z,32.19
2022-08-10T15:44:43.236Z,32.23
2022-08-10T15:45:42.988Z,32.23
2022-08-10T15:46:43.020Z,32.15
2022-08-10T15:47:45.957Z,32.20
2022-08-10T16:19:51.731Z,31.94
2022-08-10T16:21:34.319Z,31.91
2022-08-10T16:22:36.265Z,31.87
2022-08-10T16:23:34.388Z,31.90
2022-08-10T16:24:34.417Z,31.86
2022-08-10T16:25:48.456Z,31.74
2022-08-10T16:27:42.099Z,31.68
2022-08-10T16:28:42.128Z,31.71
2022-08-10T16:29:55.732Z,31.67
2022-08-10T16:30:42.192Z,31.59
2022-08-10T16:31:42.229Z,31.63
2022-08-10T16:32:42.272Z,31.62
2022-08-10T16:33:53.869Z,31.62
2022-08-10T16:34:42.330Z,31.56
2022-08-10T16:35:44.775Z,31.53
2022-08-10T16:36:42.396Z,31.55
2022-08-10T16:37:59.005Z,31.59
2022-08-10T16:38:42.464Z,31.52
2022-08-10T16:39:58.078Z,31.52
2022-08-10T16:40:42.566Z,31.47
2022-08-10T16:42:03.487Z,31.47
2022-08-10T16:42:45.012Z,31.38
2022-08-10T16:43:42.631Z,31.43
2022-08-10T16:44:42.667Z,31.34
2022-08-10T16:45:42.701Z,31.37
2022-08-10T16:46:42.733Z,31.36
2022-08-10T16:47:42.832Z,31.40
2022-08-10T16:48:50.063Z,31.38
2022-08-10T16:49:42.835Z,31.26
2022-08-10T16:50:42.868Z,31.36
2022-08-10T16:51:42.902Z,31.36
2022-08-10T16:52:42.937Z,31.37
2022-08-10T16:53:42.973Z,31.34
2022-08-10T16:54:43.020Z,31.43
2022-08-10T16:55:48.006Z,31.33
2022-08-10T16:56:47.670Z,31.37
2022-08-10T16:57:43.107Z,31.26
2022-08-10T16:58:43.160Z,31.33
2022-08-10T16:59:43.172Z,31.28
2022-08-10T17:00:43.355Z,31.26
2022-08-10T17:01:43.285Z,31.26
2022-08-10T17:02:43.287Z,31.40
2022-08-10T17:04:08.683Z,31.23
2022-08-10T17:04:43.340Z,31.30
2022-08-10T17:06:01.720Z,31.30
2022-08-10T17:06:43.413Z,31.15
2022-08-10T17:07:43.442Z,31.19
2022-08-10T17:08:48.041Z,31.16
2022-08-10T17:09:43.511Z,31.10
2022-08-10T17:10:43.541Z,31.00
2022-08-10T17:11:43.576Z,30.96
2022-08-10T17:12:43.611Z,30.97
2022-08-10T17:13:43.642Z,30.99
2022-08-10T17:14:44.166Z,30.89
2022-08-10T17:15:43.713Z,30.93
2022-08-10T17:16:43.746Z,30.91
2022-08-10T17:17:43.778Z,30.96
2022-08-10T17:18:46.740Z,30.91
2022-08-10T17:19:43.843Z,30.91
2022-08-10T17:20:43.878Z,30.89
2022-08-10T17:21:51.510Z,30.86
2022-08-10T17:22:43.945Z,30.81
2022-08-10T17:23:43.979Z,30.81
2022-08-10T17:24:44.013Z,30.81
2022-08-10T17:25:46.417Z,30.84
2022-08-10T17:26:44.078Z,30.70
2022-08-10T17:28:04.975Z,30.67
2022-08-10T17:28:44.146Z,30.69
2022-08-10T17:29:57.848Z,30.71
2022-08-10T17:30:57.513Z,30.57
2022-08-10T17:31:54.730Z,30.57
2022-08-10T17:32:45.154Z,30.49
2022-08-10T17:33:44.310Z,30.49
2022-08-10T17:34:44.344Z,30.47
2022-08-10T17:35:44.376Z,30.39
2022-08-10T17:36:44.412Z,30.45
2022-08-10T17:37:44.450Z,30.39
2022-08-10T17:38:44.477Z,30.42
2022-08-10T17:39:44.667Z,30.34
2022-08-10T17:40:44.593Z,30.39
2022-08-10T17:41:44.575Z,30.31
2022-08-10T17:42:44.608Z,30.39
2022-08-10T17:44:01.028Z,30.31
2022-08-10T17:44:44.674Z,30.31
2022-08-10T17:45:47.791Z,30.18
2022-08-10T17:46:44.741Z,30.26
2022-08-10T17:47:44.771Z,30.10
2022-08-10T17:48:44.810Z,30.04
2022-08-10T17:49:44.835Z,30.03
2022-08-10T17:50:44.871Z,30.03
2022-08-10T17:51:44.901Z,29.92
2022-08-10T17:52:44.936Z,29.97
2022-08-10T17:53:44.968Z,29.85
2022-08-10T17:54:45.002Z,29.87
2022-08-10T17:55:45.042Z,29.84
2022-08-10T17:57:33.550Z,29.81
2022-08-10T17:58:33.541Z,29.76
2022-08-10T17:59:33.572Z,29.81
2022-08-10T18:00:33.604Z,29.82
2022-08-10T18:01:40.274Z,29.77
2022-08-10T18:02:33.715Z,29.82
2022-08-10T18:03:35.116Z,29.88
2022-08-10T18:04:41.460Z,29.75
2022-08-10T18:05:33.763Z,29.77
2022-08-10T18:06:33.798Z,29.73
2022-08-10T18:07:33.826Z,29.66
2022-08-10T18:08:33.863Z,29.63
2022-08-10T18:09:33.893Z,29.54
2022-08-10T18:10:33.927Z,29.40
2022-08-10T18:11:33.958Z,29.42
2022-08-10T18:12:38.942Z,29.52
2022-08-10T18:13:56.376Z,29.39
2022-08-10T18:14:34.058Z,29.32
2022-08-10T18:15:36.712Z,29.32
2022-08-10T18:16:34.178Z,29.38
2022-08-10T18:17:38.499Z,29.33
2022-08-10T18:18:34.188Z,29.40
2022-08-10T18:19:34.318Z,29.33
2022-08-10T18:20:34.250Z,29.29
2022-08-10T18:21:34.285Z,29.26
2022-08-10T18:22:34.321Z,29.18
2022-08-10T18:23:34.348Z,29.17
2022-08-10T18:24:34.381Z,29.14
2022-08-10T18:25:34.618Z,29.03
2022-08-10T18:26:34.460Z,28.97
2022-08-10T18:28:01.489Z,28.98
2022-08-10T18:28:34.514Z,28.98
2022-08-10T18:29:34.543Z,28.94
2022-08-10T18:30:36.817Z,28.90
2022-08-10T18:31:34.609Z,28.91
2022-08-10T18:32:34.645Z,28.78
2022-08-10T18:33:34.676Z,28.82
2022-08-10T18:34:34.709Z,28.68
2022-08-10T18:35:35.335Z,28.76
2022-08-10T18:36:34.776Z,28.80
2022-08-10T18:37:34.807Z,28.73
2022-08-10T18:38:34.842Z,28.72
2022-08-10T18:39:34.963Z,28.68
2022-08-10T18:40:36.309Z,28.58
2022-08-10T18:41:34.936Z,28.60
2022-08-10T18:42:34.976Z,28.53
2022-08-10T18:44:10.039Z,28.48
2022-08-10T18:44:35.043Z,28.49
2022-08-10T18:46:35.109Z,28.38
2022-08-10T18:49:35.822Z,28.28
2022-08-10T18:52:35.306Z,28.24
2022-08-10T19:00:35.551Z,27.98
2022-08-10T19:01:35.817Z,27.90
2022-08-10T19:02:35.635Z,27.89
2022-08-10T19:03:35.645Z,27.75
2022-08-10T19:04:35.678Z,27.80
2022-08-10T19:05:35.706Z,27.79
2022-08-10T19:06:36.956Z,27.65
2022-08-10T19:08:49.519Z,27.61
2022-08-10T19:09:46.275Z,27.55
2022-08-10T19:10:43.444Z,27.52
2022-08-10T19:11:43.473Z,27.48
2022-08-10T19:12:43.506Z,27.51
2022-08-10T19:13:48.959Z,27.52
2022-08-10T19:14:43.566Z,27.37
2022-08-10T19:15:43.599Z,27.28
2022-08-10T19:16:43.632Z,27.31
2022-08-10T19:18:02.892Z,27.33
2022-08-10T19:18:43.694Z,27.23
2022-08-10T19:19:46.363Z,27.18